< Typhoon 196515 1965 Season Typhoon 196517 >
Typhoon 196516 (KIM)
General InformationTrack Information on Google Maps || Disaster Info.ResourceGoogle EarthGE AnimationAtom FeedGeoJSON
Detalied Best Track (Time Zone = UTC)
Year Month Day Hour Lat. Long. Pressure (hPa) Wind (kt) Class Image Chart
1965 8 2 00 24.4 139.0 1006 0 2 -- Chart
1965 8 2 06 25.0 139.0 1004 0 2 -- Chart
1965 8 2 12 25.5 139.0 1004 0 2 -- Chart
1965 8 2 18 26.1 139.0 1004 0 2 -- Chart
1965 8 3 00 26.5 139.0 1004 0 2 -- Chart
1965 8 3 06 27.2 139.1 1004 0 2 -- Chart
1965 8 3 12 27.6 139.5 1000 0 9 -- Chart
1965 8 3 18 28.0 139.9 1000 0 9 -- Chart
1965 8 4 00 28.4 140.2 998 0 9 -- Chart
1965 8 4 06 29.0 140.5 996 0 9 -- Chart
1965 8 4 12 29.8 141.0 994 0 9 -- Chart
1965 8 4 18 30.5 141.7 992 0 9 -- Chart
1965 8 5 00 30.8 142.5 990 0 9 -- Chart
1965 8 5 06 31.3 143.0 990 0 9 -- Chart
1965 8 5 12 31.6 143.6 990 0 9 -- Chart
1965 8 5 18 32.0 144.2 990 0 9 -- Chart
1965 8 6 00 32.5 145.1 990 0 9 -- Chart
1965 8 6 06 33.0 145.5 990 0 9 -- Chart
1965 8 6 12 33.6 145.6 995 0 9 -- Chart
1965 8 6 18 34.6 146.6 998 0 9 -- Chart
1965 8 7 00 35.5 147.7 1002 0 2 -- Chart
1965 8 7 06 36.4 148.8 1002 0 2 -- Chart
1965 8 7 12 37.0 150.0 1002 0 2 -- Chart
1965 8 7 18 37.5 151.1 1002 0 2 -- Chart
1965 8 8 00 37.7 152.0 1004 0 2 -- Chart
1965 8 8 06 38.1 153.2 1004 0 2 -- Chart
1965 8 8 12 38.3 154.5 1008 0 2 -- Chart
1965 8 8 18 38.0 156.0 1007 0 2 -- Chart
Japan Meteorological Agency Best Track Data | Correction Date : 1989-06-01
< Typhoon 196515 1965 Season Typhoon 196517 >

Help